createdAt,value
2023-11-13T00:00:14.722Z,3.68
2023-11-13T00:03:00.518Z,3.77
2023-11-13T00:05:45.851Z,3.63
2023-11-13T00:08:31.331Z,3.74
2023-11-13T00:11:16.242Z,3.56
2023-11-13T00:14:01.159Z,3.48
2023-11-13T00:16:47.812Z,3.61
2023-11-13T00:19:34.091Z,3.73
2023-11-13T00:22:19.032Z,3.67
2023-11-13T00:25:04.606Z,3.41
2023-11-13T00:27:49.771Z,3.34
2023-11-13T00:30:35.225Z,3.29
2023-11-13T00:33:20.176Z,3.31
2023-11-13T00:36:06.165Z,3.28
2023-11-13T00:38:50.988Z,3.31
2023-11-13T00:41:35.941Z,3.21
2023-11-13T00:44:20.841Z,3.27
2023-11-13T00:47:05.867Z,3.31
2023-11-13T00:49:50.882Z,3.41
2023-11-13T00:52:35.796Z,3.28
2023-11-13T00:55:20.746Z,3.36
2023-11-13T00:58:05.981Z,3.42
2023-11-13T01:00:51.105Z,3.36
2023-11-13T01:03:37.519Z,3.46
2023-11-13T01:06:23.919Z,3.46
2023-11-13T01:09:08.868Z,3.40
2023-11-13T01:11:53.859Z,3.49
2023-11-13T01:14:39.293Z,3.50
2023-11-13T01:17:24.417Z,3.36
2023-11-13T01:20:10.212Z,3.24
2023-11-13T01:22:55.205Z,3.27
2023-11-13T01:25:41.612Z,3.11
2023-11-13T01:28:26.615Z,3.22
2023-11-13T01:31:11.405Z,3.17
2023-11-13T01:33:56.414Z,3.20
2023-11-13T01:36:44.935Z,3.06
2023-11-13T01:39:29.975Z,3.01
2023-11-13T01:42:14.957Z,2.89
2023-11-13T01:44:59.741Z,2.91
2023-11-13T01:47:47.046Z,2.89
2023-11-13T01:50:32.238Z,2.90
2023-11-13T01:53:26.321Z,2.87
2023-11-13T01:56:12.285Z,2.89
2023-11-13T01:58:58.956Z,2.88
2023-11-13T02:01:44.594Z,2.93
2023-11-13T02:04:29.541Z,3.06
2023-11-13T02:07:15.035Z,3.04
2023-11-13T02:10:00.484Z,3.11
2023-11-13T02:12:46.391Z,3.20
2023-11-13T02:15:31.846Z,3.17
2023-11-13T02:18:17.225Z,3.13
2023-11-13T02:21:02.220Z,3.05
2023-11-13T02:23:48.486Z,3.23
2023-11-13T02:26:33.535Z,3.30
2023-11-13T02:29:18.866Z,3.27
2023-11-13T02:32:04.253Z,3.27
2023-11-13T02:34:49.056Z,3.27
2023-11-13T02:37:34.869Z,3.34
2023-11-13T02:40:20.043Z,3.31
2023-11-13T02:43:05.426Z,3.11
2023-11-13T02:45:50.280Z,3.23
2023-11-13T02:48:35.607Z,3.19
2023-11-13T02:51:20.364Z,3.23
2023-11-13T02:54:05.675Z,3.15
2023-11-13T02:56:50.684Z,3.19
2023-11-13T02:59:35.748Z,3.18
2023-11-13T03:02:20.659Z,3.20
2023-11-13T03:05:05.942Z,3.10
2023-11-13T03:07:51.613Z,3.18
2023-11-13T03:10:36.520Z,3.17
2023-11-13T03:13:21.427Z,3.18
2023-11-13T03:16:06.429Z,3.18
2023-11-13T03:18:51.908Z,3.23
2023-11-13T03:21:37.093Z,3.34
2023-11-13T03:24:21.912Z,3.28
2023-11-13T03:27:06.946Z,3.37
2023-11-13T03:29:52.143Z,3.46
2023-11-13T03:32:37.152Z,3.31
2023-11-13T03:35:22.278Z,3.31
2023-11-13T03:38:07.320Z,3.28
2023-11-13T03:40:52.169Z,3.37
2023-11-13T03:43:37.100Z,3.51
2023-11-13T03:46:21.945Z,3.34
2023-11-13T03:49:07.300Z,3.33
2023-11-13T03:51:52.715Z,3.44
2023-11-13T03:54:37.632Z,3.49
2023-11-13T03:57:22.587Z,3.58
2023-11-13T04:00:07.963Z,3.69
2023-11-13T04:02:52.965Z,3.72
2023-11-13T04:05:38.390Z,3.75
2023-11-13T04:08:23.241Z,3.81
2023-11-13T04:11:10.096Z,3.83
2023-11-13T04:13:57.103Z,3.91
2023-11-13T04:16:42.104Z,3.92
2023-11-13T04:19:29.314Z,3.98
2023-11-13T04:22:14.293Z,3.97
2023-11-13T04:25:00.606Z,3.97
2023-11-13T04:27:45.821Z,4.01
2023-11-13T04:30:30.744Z,4.02
2023-11-13T04:33:16.332Z,4.11
2023-11-13T04:36:01.672Z,4.09
2023-11-13T04:38:46.449Z,4.16
2023-11-13T04:41:31.262Z,4.12
2023-11-13T04:44:16.148Z,3.97
2023-11-13T04:47:01.494Z,4.01
2023-11-13T04:49:48.749Z,3.96
2023-11-13T04:52:35.400Z,4.05
2023-11-13T04:55:20.732Z,4.09
2023-11-13T04:58:06.168Z,4.04
2023-11-13T05:00:51.296Z,3.93
2023-11-13T05:03:37.589Z,4.16
2023-11-13T05:06:22.494Z,4.13
2023-11-13T05:09:07.304Z,4.23
2023-11-13T05:11:52.162Z,4.10
2023-11-13T05:14:40.361Z,4.18
2023-11-13T05:17:25.426Z,4.22
2023-11-13T05:20:10.707Z,4.22
2023-11-13T05:22:55.413Z,4.21
2023-11-13T05:25:40.230Z,4.19
2023-11-13T05:28:24.954Z,4.24
2023-11-13T05:31:10.327Z,4.26
2023-11-13T05:33:56.196Z,4.28
2023-11-13T05:36:41.053Z,4.26
2023-11-13T05:39:26.035Z,4.29
2023-11-13T05:42:10.862Z,4.38
2023-11-13T05:44:55.844Z,4.32
2023-11-13T05:47:40.701Z,4.33
2023-11-13T05:50:25.711Z,4.36
2023-11-13T05:53:10.500Z,4.33
2023-11-13T05:55:57.868Z,4.42
2023-11-13T05:58:43.455Z,4.41
2023-11-13T06:01:28.246Z,4.45
2023-11-13T06:04:13.133Z,4.52
2023-11-13T06:06:58.456Z,4.48
2023-11-13T06:09:43.819Z,4.56
2023-11-13T06:12:28.806Z,4.61
2023-11-13T06:15:14.081Z,4.63
2023-11-13T06:17:59.031Z,4.65
2023-11-13T06:20:44.409Z,4.73
2023-11-13T06:23:29.481Z,4.57
2023-11-13T06:26:14.370Z,4.63
2023-11-13T06:28:59.283Z,4.71
2023-11-13T06:31:44.119Z,4.74
2023-11-13T06:34:29.341Z,4.71
2023-11-13T06:37:14.389Z,4.76
2023-11-13T06:39:59.750Z,4.80
2023-11-13T06:42:45.933Z,4.83
2023-11-13T06:45:30.985Z,4.84
2023-11-13T06:48:15.898Z,4.85
2023-11-13T06:51:00.995Z,4.96
2023-11-13T06:53:45.865Z,4.97
2023-11-13T06:56:33.815Z,4.96
2023-11-13T06:59:18.485Z,5.01
2023-11-13T07:02:03.431Z,5.02
2023-11-13T07:04:49.068Z,5.06
2023-11-13T07:07:34.206Z,5.02
2023-11-13T07:10:19.283Z,5.04
2023-11-13T07:13:04.102Z,5.12
2023-11-13T07:15:49.494Z,5.14
2023-11-13T07:18:34.824Z,5.13
2023-11-13T07:21:19.598Z,5.16
2023-11-13T07:24:05.289Z,5.17
2023-11-13T07:26:50.411Z,5.17
2023-11-13T07:29:36.017Z,5.26
2023-11-13T07:32:20.917Z,5.22
2023-11-13T07:35:06.720Z,5.31
2023-11-13T07:37:51.456Z,5.34
2023-11-13T07:40:37.015Z,5.43
2023-11-13T07:43:22.503Z,5.45
2023-11-13T07:46:07.492Z,5.39
2023-11-13T07:48:52.700Z,5.42
2023-11-13T07:51:37.624Z,5.41
2023-11-13T07:54:22.422Z,5.54
2023-11-13T07:57:08.024Z,5.57
2023-11-13T07:59:53.169Z,5.62
2023-11-13T08:02:38.808Z,5.77
2023-11-13T08:05:23.986Z,5.84
2023-11-13T08:08:09.263Z,5.92
2023-11-13T08:10:54.206Z,5.91
2023-11-13T08:13:39.251Z,5.99
2023-11-13T08:16:24.125Z,6.01
2023-11-13T08:19:09.616Z,6.02
2023-11-13T08:21:54.570Z,6.07
2023-11-13T08:24:39.559Z,6.13
2023-11-13T08:27:24.505Z,6.18
2023-11-13T08:30:10.254Z,6.17
2023-11-13T08:32:55.222Z,6.26
2023-11-13T08:35:40.386Z,6.32
2023-11-13T08:38:25.528Z,6.21
2023-11-13T08:41:10.629Z,6.23
2023-11-13T08:43:56.259Z,6.31
2023-11-13T08:46:41.675Z,6.43
2023-11-13T08:49:26.950Z,6.43
2023-11-13T08:52:11.949Z,6.47
2023-11-13T08:54:58.375Z,6.50
2023-11-13T08:57:46.261Z,6.53
2023-11-13T09:00:31.253Z,6.47
2023-11-13T09:03:16.322Z,6.53
2023-11-13T09:06:05.021Z,6.58
2023-11-13T09:08:50.328Z,6.56
2023-11-13T09:11:35.047Z,6.51
2023-11-13T09:14:20.194Z,6.43
2023-11-13T09:17:05.254Z,6.53
2023-11-13T09:19:50.391Z,6.57
2023-11-13T09:22:35.861Z,6.59
2023-11-13T09:25:21.961Z,6.55
2023-11-13T09:28:07.004Z,6.57
2023-11-13T09:30:52.273Z,6.62
2023-11-13T09:33:37.679Z,6.60
2023-11-13T09:36:22.636Z,6.65
2023-11-13T09:39:07.459Z,6.67
2023-11-13T09:41:52.621Z,6.65
2023-11-13T09:44:50.139Z,6.67
2023-11-13T09:47:44.364Z,6.78
2023-11-13T09:50:30.124Z,6.74
2023-11-13T09:53:16.345Z,6.86
2023-11-13T09:56:01.234Z,6.75
2023-11-13T09:58:50.123Z,6.83
2023-11-13T10:01:35.719Z,6.81
2023-11-13T10:04:20.974Z,6.86
2023-11-13T10:07:07.153Z,6.93
2023-11-13T10:10:02.805Z,6.92
2023-11-13T10:12:48.554Z,6.92
2023-11-13T10:15:34.518Z,6.93
2023-11-13T10:18:26.980Z,7.08
2023-11-13T10:21:34.845Z,7.14
2023-11-13T10:24:30.832Z,7.16
2023-11-13T10:27:23.014Z,7.16
2023-11-13T10:30:08.644Z,7.31
2023-11-13T10:32:54.461Z,7.40
2023-11-13T10:35:39.443Z,7.37
2023-11-13T10:38:24.363Z,7.42
2023-11-13T10:41:09.140Z,7.43
2023-11-13T10:43:54.113Z,7.55
2023-11-13T10:46:39.125Z,7.66
2023-11-13T10:49:25.099Z,7.71
2023-11-13T10:52:10.002Z,7.76
2023-11-13T10:54:56.542Z,7.81
2023-11-13T10:57:42.695Z,7.90
2023-11-13T11:00:27.835Z,7.95
2023-11-13T11:03:13.027Z,7.96
2023-11-13T11:06:01.144Z,8.04
2023-11-13T11:08:47.033Z,8.04
2023-11-13T11:11:33.150Z,8.05
2023-11-13T11:14:26.757Z,8.10
2023-11-13T11:17:23.456Z,8.21
2023-11-13T11:20:16.369Z,8.20
2023-11-13T11:23:02.317Z,8.25
2023-11-13T11:25:50.110Z,8.25
2023-11-13T11:28:44.368Z,8.12
2023-11-13T11:31:31.068Z,8.21
2023-11-13T11:34:18.098Z,8.31
2023-11-13T11:37:03.561Z,8.19
2023-11-13T11:39:53.380Z,8.24
2023-11-13T11:42:38.376Z,8.34
2023-11-13T11:45:27.608Z,8.39
2023-11-13T11:48:14.794Z,8.43
2023-11-13T11:51:13.555Z,8.45
2023-11-13T11:54:00.593Z,8.44
2023-11-13T11:57:02.924Z,8.45
2023-11-13T11:59:48.168Z,8.52
2023-11-13T12:02:33.614Z,8.51
2023-11-13T12:05:18.841Z,8.69
2023-11-13T12:08:11.015Z,8.71
2023-11-13T12:10:58.056Z,8.68
2023-11-13T12:13:43.490Z,8.68
2023-11-13T12:16:28.739Z,8.76
2023-11-13T12:19:14.238Z,8.78
2023-11-13T12:21:59.788Z,8.75
2023-11-13T12:24:44.757Z,8.66
2023-11-13T12:27:29.980Z,8.56
2023-11-13T12:30:15.823Z,8.67
2023-11-13T12:33:01.292Z,8.55
2023-11-13T12:35:55.910Z,8.46
2023-11-13T12:38:44.041Z,8.52
2023-11-13T12:41:29.414Z,8.46
2023-11-13T12:44:18.590Z,8.40
2023-11-13T12:47:03.945Z,8.46
2023-11-13T12:49:50.188Z,8.45
2023-11-13T12:52:39.025Z,8.39
2023-11-13T12:55:24.483Z,8.28
2023-11-13T12:58:10.046Z,8.35
2023-11-13T13:00:55.662Z,8.32
2023-11-13T13:03:40.543Z,8.31
2023-11-13T13:06:25.721Z,8.23
2023-11-13T13:09:13.122Z,8.35
2023-11-13T13:11:58.287Z,8.35
2023-11-13T13:14:43.312Z,8.41
2023-11-13T13:17:28.395Z,8.40
2023-11-13T13:20:13.580Z,8.43
2023-11-13T13:22:59.976Z,8.39
2023-11-13T13:25:44.999Z,8.37
2023-11-13T13:28:30.592Z,8.42
2023-11-13T13:31:16.111Z,8.42
2023-11-13T13:34:01.024Z,8.44
2023-11-13T13:36:46.340Z,8.52
2023-11-13T13:39:31.433Z,8.51
2023-11-13T13:42:16.562Z,8.49
2023-11-13T13:45:01.625Z,8.60
2023-11-13T13:47:47.281Z,8.53
2023-11-13T13:50:32.330Z,8.55
2023-11-13T13:53:17.228Z,8.59
2023-11-13T13:56:03.169Z,8.65
2023-11-13T13:58:48.119Z,8.63
2023-11-13T14:01:33.474Z,8.69
2023-11-13T14:04:19.156Z,8.75
2023-11-13T14:07:04.229Z,8.89
2023-11-13T14:09:49.264Z,8.97
2023-11-13T14:12:34.126Z,9.03
2023-11-13T14:15:18.992Z,9.07
2023-11-13T14:18:04.515Z,9.14
2023-11-13T14:20:49.849Z,9.19
2023-11-13T14:23:35.140Z,9.31
2023-11-13T14:26:20.242Z,9.46
2023-11-13T14:29:05.193Z,9.60
2023-11-13T14:31:50.222Z,9.70
2023-11-13T14:34:35.525Z,9.79
2023-11-13T14:37:20.377Z,9.96
2023-11-13T14:40:06.931Z,10.10
2023-11-13T14:42:52.828Z,10.27
2023-11-13T14:45:38.768Z,10.36
2023-11-13T14:48:23.999Z,10.50
2023-11-13T14:51:09.354Z,10.65
2023-11-13T14:53:54.311Z,10.77
2023-11-13T14:56:39.313Z,10.92
2023-11-13T14:59:24.631Z,11.05
2023-11-13T15:02:09.612Z,11.20
2023-11-13T15:04:54.509Z,11.32
2023-11-13T15:07:40.000Z,11.40
2023-11-13T15:10:25.160Z,11.52
2023-11-13T15:13:10.170Z,11.59
2023-11-13T15:15:55.499Z,11.70
2023-11-13T15:18:47.822Z,11.73
2023-11-13T15:21:35.534Z,11.77
2023-11-13T15:24:20.572Z,12.01
2023-11-13T15:27:06.441Z,12.17
2023-11-13T15:29:51.426Z,12.19
2023-11-13T15:32:54.616Z,12.21
2023-11-13T15:35:39.320Z,12.20
2023-11-13T15:38:24.259Z,12.38
2023-11-13T15:41:08.973Z,12.48
2023-11-13T15:43:53.946Z,12.61
2023-11-13T15:46:39.093Z,12.67
2023-11-13T15:49:24.441Z,12.75
2023-11-13T15:52:09.846Z,12.85
2023-11-13T15:54:54.701Z,12.83
2023-11-13T15:57:40.211Z,12.83
2023-11-13T16:00:25.048Z,12.86
2023-11-13T16:03:09.963Z,12.93
2023-11-13T16:05:55.292Z,12.97
2023-11-13T16:08:41.606Z,12.92
2023-11-13T16:11:26.979Z,12.79
2023-11-13T16:14:12.062Z,12.75
2023-11-13T16:16:56.962Z,12.70
2023-11-13T16:19:45.616Z,12.74
2023-11-13T16:22:31.200Z,12.75
2023-11-13T16:25:16.147Z,12.75
2023-11-13T16:28:00.934Z,12.85
2023-11-13T16:30:45.885Z,12.79
2023-11-13T16:33:31.519Z,12.68
2023-11-13T16:36:16.727Z,12.67
2023-11-13T16:39:02.141Z,12.70
2023-11-13T16:41:47.137Z,12.82
2023-11-13T16:44:32.070Z,12.81
2023-11-13T16:47:17.039Z,12.83
2023-11-13T16:50:02.396Z,12.84
2023-11-13T16:52:47.414Z,12.89
2023-11-13T16:55:32.633Z,12.94
2023-11-13T16:58:18.059Z,12.98
2023-11-13T17:01:05.498Z,12.96
2023-11-13T17:03:52.986Z,12.97
2023-11-13T17:06:37.982Z,13.10
2023-11-13T17:09:22.821Z,13.14
2023-11-13T17:12:07.898Z,13.22
2023-11-13T17:14:52.643Z,13.17
2023-11-13T17:17:38.392Z,13.13
2023-11-13T17:20:23.559Z,13.09
2023-11-13T17:23:08.510Z,13.01
2023-11-13T17:25:53.938Z,13.14
2023-11-13T17:28:39.132Z,13.14
2023-11-13T17:31:24.558Z,13.12
2023-11-13T17:34:09.927Z,13.14
2023-11-13T17:36:55.150Z,13.09
2023-11-13T17:39:40.074Z,13.11
2023-11-13T17:42:26.034Z,13.24
2023-11-13T17:45:11.071Z,13.17
2023-11-13T17:47:58.723Z,13.12
2023-11-13T17:50:45.323Z,13.21
2023-11-13T17:53:30.248Z,13.17
2023-11-13T17:56:15.490Z,13.11
2023-11-13T17:59:00.331Z,13.16
2023-11-13T18:01:45.143Z,13.14
2023-11-13T18:04:30.890Z,13.15
2023-11-13T18:07:16.205Z,13.04
2023-11-13T18:10:01.374Z,13.06
2023-11-13T18:12:46.289Z,13.12
2023-11-13T18:15:31.245Z,13.15
2023-11-13T18:18:16.267Z,13.13
2023-11-13T18:21:01.118Z,13.17
2023-11-13T18:23:46.116Z,13.11
2023-11-13T18:26:30.904Z,13.11
2023-11-13T18:29:16.230Z,13.06
2023-11-13T18:32:01.400Z,13.02
2023-11-13T18:34:46.166Z,13.04
2023-11-13T18:37:31.703Z,13.00
2023-11-13T18:40:17.100Z,12.95
2023-11-13T18:43:01.903Z,12.94
2023-11-13T18:45:46.728Z,12.89
2023-11-13T18:48:32.176Z,12.91
2023-11-13T18:51:17.756Z,12.92
2023-11-13T18:54:02.723Z,12.86
2023-11-13T18:56:47.640Z,12.79
2023-11-13T18:59:32.410Z,12.75
2023-11-13T19:02:17.396Z,12.80
2023-11-13T19:05:02.183Z,12.75
2023-11-13T19:07:47.170Z,12.68
2023-11-13T19:10:32.589Z,12.65
2023-11-13T19:13:17.827Z,12.50
2023-11-13T19:16:02.777Z,12.46
2023-11-13T19:18:47.601Z,12.45
2023-11-13T19:21:32.550Z,12.34
2023-11-13T19:24:17.344Z,12.32
2023-11-13T19:27:02.313Z,12.37
2023-11-13T19:29:47.143Z,12.28
2023-11-13T19:32:31.984Z,12.33
2023-11-13T19:35:17.432Z,12.20
2023-11-13T19:38:05.501Z,12.05
2023-11-13T19:40:50.380Z,12.01
2023-11-13T19:43:35.114Z,12.08
2023-11-13T19:46:20.088Z,12.12
2023-11-13T19:49:05.566Z,12.06
2023-11-13T19:51:50.448Z,12.11
2023-11-13T19:54:35.666Z,12.03
2023-11-13T19:57:20.995Z,12.15
2023-11-13T20:00:06.786Z,12.02
2023-11-13T20:02:52.165Z,11.91
2023-11-13T20:05:37.656Z,11.85
2023-11-13T20:08:22.631Z,11.82
2023-11-13T20:11:07.497Z,11.74
2023-11-13T20:13:53.022Z,11.62
2023-11-13T20:16:38.442Z,11.68
2023-11-13T20:19:23.815Z,11.70
2023-11-13T20:22:08.711Z,11.63
2023-11-13T20:24:53.712Z,11.63
2023-11-13T20:27:38.672Z,11.66
2023-11-13T20:30:23.645Z,11.49
2023-11-13T20:33:08.616Z,11.50
2023-11-13T20:35:54.010Z,11.50
2023-11-13T20:38:39.416Z,11.54
2023-11-13T20:41:25.480Z,11.42
2023-11-13T20:44:10.572Z,11.51
2023-11-13T20:46:56.481Z,11.49
2023-11-13T20:49:41.628Z,11.48
2023-11-13T20:52:26.979Z,11.45
2023-11-13T20:55:12.401Z,11.38
2023-11-13T20:57:57.396Z,11.35
2023-11-13T21:00:42.290Z,11.36
2023-11-13T21:03:28.547Z,11.48
2023-11-13T21:06:13.610Z,11.50
2023-11-13T21:08:58.409Z,11.44
2023-11-13T21:11:43.365Z,11.48
2023-11-13T21:14:28.162Z,11.44
2023-11-13T21:17:13.039Z,11.40
2023-11-13T21:19:58.403Z,11.41
2023-11-13T21:22:43.281Z,11.35
2023-11-13T21:25:28.157Z,11.26
2023-11-13T21:28:13.021Z,11.28
2023-11-13T21:30:58.489Z,11.38
2023-11-13T21:33:44.516Z,11.47
2023-11-13T21:36:29.738Z,11.38
2023-11-13T21:39:14.826Z,11.36
2023-11-13T21:41:59.624Z,11.43
2023-11-13T21:44:44.642Z,11.27
2023-11-13T21:47:29.432Z,11.28
2023-11-13T21:50:14.936Z,11.20
2023-11-13T21:52:59.772Z,11.27
2023-11-13T21:55:45.245Z,11.23
2023-11-13T21:58:30.842Z,11.24
2023-11-13T22:01:15.778Z,11.14
2023-11-13T22:04:01.136Z,11.21
2023-11-13T22:06:46.052Z,11.13
2023-11-13T22:09:31.426Z,11.25
2023-11-13T22:12:16.399Z,11.29
2023-11-13T22:15:01.813Z,11.28
2023-11-13T22:17:46.753Z,11.35
2023-11-13T22:20:31.881Z,11.34
2023-11-13T22:23:17.019Z,11.42
2023-11-13T22:26:01.803Z,11.40
2023-11-13T22:28:46.600Z,11.34
2023-11-13T22:31:31.909Z,11.33
2023-11-13T22:34:16.962Z,11.30
2023-11-13T22:37:01.739Z,11.28
2023-11-13T22:39:47.137Z,11.24
2023-11-13T22:42:32.180Z,11.21
2023-11-13T22:45:17.042Z,11.18
2023-11-13T22:48:02.086Z,11.11
2023-11-13T22:50:47.358Z,11.20
2023-11-13T22:53:32.381Z,11.15
2023-11-13T22:56:17.178Z,11.28
2023-11-13T22:59:02.060Z,11.18
2023-11-13T23:01:46.881Z,11.10
2023-11-13T23:04:32.227Z,11.27
2023-11-13T23:07:17.168Z,11.22
2023-11-13T23:10:02.136Z,11.22
2023-11-13T23:12:47.173Z,11.25
2023-11-13T23:15:33.132Z,11.20
2023-11-13T23:18:18.018Z,11.24
2023-11-13T23:21:03.332Z,11.26
2023-11-13T23:23:48.152Z,11.24
2023-11-13T23:26:33.101Z,11.17
2023-11-13T23:29:18.052Z,11.20
2023-11-13T23:32:03.092Z,11.28
2023-11-13T23:34:47.952Z,11.22
2023-11-13T23:37:33.382Z,11.20
2023-11-13T23:40:18.089Z,11.25
2023-11-13T23:43:03.007Z,11.29
2023-11-13T23:45:47.968Z,11.30
2023-11-13T23:48:32.944Z,11.38
2023-11-13T23:51:17.895Z,11.31
2023-11-13T23:54:02.700Z,11.34
2023-11-13T23:56:48.049Z,11.39
2023-11-13T23:59:33.181Z,11.41
